Nederlandse vliegveldverwachtingen (TAF)

Luchtvaartmeteorologische informatie voor operationeel gebruik en vluchtvoorbereiding is beschikbaar op www.luchtvaartmeteo.nl.

ZCZC
FT191100 EHAM     AMSTERDAM/SCHIPHOL   NLD   -3 m.
TAF EHAM 191106Z 1912/2018 21014KT 9999 BKN018
    BECMG 1912/1915 24015G25KT SCT025
    BECMG 1918/1921 23012KT SCT012 BKN018
    TEMPO 1921/2009 4500 -DZ BR BKN008
    BECMG 2001/2004 30007KT
    BECMG 2008/2011 31012KT SCT025
    BECMG 2016/2018 34007KT=

ZCZC
FT191100 EHBK     MAASTRICHT/MAASTRICHT-AACHEN   NLD   114 m.
TAF EHBK 191045Z 1912/2018 23010KT 9999 BKN030
    BECMG 2003/2006 BKN012
    PROB40 2003/2009 4500 BR -DZ BKN006
    BECMG 2009/2012 29008KT BKN018=

ZCZC
FT191100 EHGG     GRONINGEN/EELDE   NLD   5 m.
TAF EHGG 191045Z 1912/2018 22012KT 9999 SCT020 BKN030
    PROB30 TEMPO 1912/1914 6000 -DZ BKN012
    PROB30 TEMPO 1921/2003 4500 -DZ SCT008 BKN012
    BECMG 2003/2005 28007KT 6000 BKN012
    PROB40 2003/2008 4500 BR -DZ BKN008
    BECMG 2009/2012 9999 BKN020=

ZCZC
FT191100 EHRD     ROTTERDAM/THE HAGUE AIRPORT   NLD   -5 m.
TAF EHRD 191105Z 1912/2018 21013KT 9999 BKN018
    BECMG 1912/1915 24015G25KT SCT025
    BECMG 1918/1921 23010KT SCT012 BKN018
    TEMPO 1921/2009 4500 -DZ BR BKN008
    BECMG 2001/2004 30007KT
    BECMG 2008/2011 31012KT SCT025
    BECMG 2016/2018 34007KT=

ZCZC
FT191100 EHEH     EINDHOVEN/EINDHOVEN   NLD   22 m.
TAF EHEH 191105Z 1912/2018 23012KT 9999 SCT030
    BECMG 1917/1920 25007KT
    BECMG 2001/2004 BKN012
    PROB40 2003/2009 SCT006 BKN010
    BECMG 2009/2011 BKN020=

ZCZC
FC191300 EHGR     GILZE-RIJEN/GILZE-RIJEN   NLD   14 m.
TAF EHGR 191300Z NIL=

ZCZC
FC191300 EHKD     DE KOOY/DE KOOY   NLD   1 m.
TAF EHKD 191236Z 1913/2001 22020G30KT 9999 BKN022
    TEMPO 1913/1916 FEW010 SCT012 BKN018
    BECMG 1918/1921 25012KT=

ZCZC
FC191300 EHLW     LEEUWARDEN/LEEUWARDEN   NLD   1 m.
TAF EHLW 191300Z NIL=

ZCZC
FC191300 EHVK     VOLKEL/VOLKEL   NLD   21 m.
TAF EHVK 191300Z NIL=

ZCZC
FC191300 EHWO     WOENSDRECHT/WOENSDRECHT   NLD   19 m.
TAF EHWO 191300Z NIL=

19/08/2018 15.15 uur LT